sensor_id;sensor_type;location;lat;lon;timestamp;pressure;altitude;pressure_sealevel;temperature;humidity
65546;BME280;52177;55.968;37.498;2023-05-07T00:00:11;100763.94;;;-0.15;66.00
65546;BME280;52177;55.968;37.498;2023-05-07T00:00:41;100771.88;;;-0.16;66.13
65546;BME280;52177;55.968;37.498;2023-05-07T00:01:12;100759.63;;;-0.16;66.08
65546;BME280;52177;55.968;37.498;2023-05-07T00:01:43;100763.09;;;-0.15;66.08
65546;BME280;52177;55.968;37.498;2023-05-07T00:02:13;100763.09;;;-0.15;66.00
65546;BME280;52177;55.968;37.498;2023-05-07T00:02:45;100766.53;;;-0.15;66.01
65546;BME280;52177;55.968;37.498;2023-05-07T00:03:15;100757.66;;;-0.12;65.93
65546;BME280;52177;55.968;37.498;2023-05-07T00:03:45;100768.16;;;-0.12;65.93
65546;BME280;52177;55.968;37.498;2023-05-07T00:04:16;100769.09;;;-0.13;66.05
65546;BME280;52177;55.968;37.498;2023-05-07T00:04:46;100770.88;;;-0.14;66.14
65546;BME280;52177;55.968;37.498;2023-05-07T00:05:16;100766.53;;;-0.15;66.02
65546;BME280;52177;55.968;37.498;2023-05-07T00:05:47;100763.16;;;-0.17;66.18
65546;BME280;52177;55.968;37.498;2023-05-07T00:06:18;100764.94;;;-0.17;66.11
65546;BME280;52177;55.968;37.498;2023-05-07T00:06:49;100768.41;;;-0.17;66.20
65546;BME280;52177;55.968;37.498;2023-05-07T00:07:19;100764.94;;;-0.17;66.22
65546;BME280;52177;55.968;37.498;2023-05-07T00:07:50;100773.63;;;-0.17;66.18
65546;BME280;52177;55.968;37.498;2023-05-07T00:08:22;100771.88;;;-0.16;66.22
65546;BME280;52177;55.968;37.498;2023-05-07T00:08:52;100771.00;;;-0.17;66.15
65546;BME280;52177;55.968;37.498;2023-05-07T00:09:23;100769.34;;;-0.18;66.14
65546;BME280;52177;55.968;37.498;2023-05-07T00:09:53;100764.09;;;-0.18;66.13
65546;BME280;52177;55.968;37.498;2023-05-07T00:10:24;100773.75;;;-0.18;66.13
65546;BME280;52177;55.968;37.498;2023-05-07T00:10:55;100772.97;;;-0.20;66.18
65546;BME280;52177;55.968;37.498;2023-05-07T00:11:26;100779.13;;;-0.22;66.32
65546;BME280;52177;55.968;37.498;2023-05-07T00:11:56;100777.44;;;-0.23;66.22
65546;BME280;52177;55.968;37.498;2023-05-07T00:12:26;100773.88;;;-0.22;66.23
65546;BME280;52177;55.968;37.498;2023-05-07T00:12:57;100770.41;;;-0.22;66.36
65546;BME280;52177;55.968;37.498;2023-05-07T00:13:27;100778.28;;;-0.22;66.41
65546;BME280;52177;55.968;37.498;2023-05-07T00:14:00;100777.38;;;-0.21;66.46
65546;BME280;52177;55.968;37.498;2023-05-07T00:14:31;100780.91;;;-0.22;66.50
65546;BME280;52177;55.968;37.498;2023-05-07T00:15:02;100773.88;;;-0.22;66.40
65546;BME280;52177;55.968;37.498;2023-05-07T00:15:33;100778.28;;;-0.22;66.28
65546;BME280;52177;55.968;37.498;2023-05-07T00:16:04;100769.50;;;-0.21;66.31
65546;BME280;52177;55.968;37.498;2023-05-07T00:16:34;100783.53;;;-0.22;66.27
65546;BME280;52177;55.968;37.498;2023-05-07T00:17:04;100780.00;;;-0.21;66.28
65546;BME280;52177;55.968;37.498;2023-05-07T00:17:35;100777.38;;;-0.21;66.27
65546;BME280;52177;55.968;37.498;2023-05-07T00:18:05;100785.22;;;-0.21;66.41
65546;BME280;52177;55.968;37.498;2023-05-07T00:18:36;100775.59;;;-0.20;66.25
65546;BME280;52177;55.968;37.498;2023-05-07T00:19:06;100783.53;;;-0.22;66.48
65546;BME280;52177;55.968;37.498;2023-05-07T00:19:36;100783.53;;;-0.22;66.46
65546;BME280;52177;55.968;37.498;2023-05-07T00:20:07;100771.25;;;-0.22;66.26
65546;BME280;52177;55.968;37.498;2023-05-07T00:20:38;100781.75;;;-0.22;66.39
65546;BME280;52177;55.968;37.498;2023-05-07T00:21:08;100786.97;;;-0.22;66.50
65546;BME280;52177;55.968;37.498;2023-05-07T00:21:38;100782.75;;;-0.24;66.48
65546;BME280;52177;55.968;37.498;2023-05-07T00:22:09;100781.84;;;-0.23;66.49
65546;BME280;52177;55.968;37.498;2023-05-07T00:22:40;100780.06;;;-0.23;66.49
65546;BME280;52177;55.968;37.498;2023-05-07T00:23:10;100779.13;;;-0.22;66.53
65546;BME280;52177;55.968;37.498;2023-05-07T00:23:41;100780.97;;;-0.24;66.60
65546;BME280;52177;55.968;37.498;2023-05-07T00:24:11;100784.53;;;-0.25;66.59
65546;BME280;52177;55.968;37.498;2023-05-07T00:24:42;100777.44;;;-0.23;66.49
65546;BME280;52177;55.968;37.498;2023-05-07T00:25:12;100779.22;;;-0.23;66.45
65546;BME280;52177;55.968;37.498;2023-05-07T00:25:42;100774.88;;;-0.24;66.33
65546;BME280;52177;55.968;37.498;2023-05-07T00:26:13;100774.88;;;-0.24;66.42
65546;BME280;52177;55.968;37.498;2023-05-07T00:26:43;100780.13;;;-0.24;66.43
65546;BME280;52177;55.968;37.498;2023-05-07T00:27:13;100780.22;;;-0.26;66.43
65546;BME280;52177;55.968;37.498;2023-05-07T00:27:44;100784.59;;;-0.26;66.39
65546;BME280;52177;55.968;37.498;2023-05-07T00:28:14;100777.69;;;-0.27;66.59
65546;BME280;52177;55.968;37.498;2023-05-07T00:28:44;100771.59;;;-0.28;66.50
65546;BME280;52177;55.968;37.498;2023-05-07T00:29:15;100776.84;;;-0.28;66.55
65546;BME280;52177;55.968;37.498;2023-05-07T00:29:45;100778.59;;;-0.28;66.42
65546;BME280;52177;55.968;37.498;2023-05-07T00:30:16;100778.69;;;-0.30;66.52
65546;BME280;52177;55.968;37.498;2023-05-07T00:30:46;100774.38;;;-0.31;66.57
65546;BME280;52177;55.968;37.498;2023-05-07T00:31:16;100779.59;;;-0.31;66.54
65546;BME280;52177;55.968;37.498;2023-05-07T00:31:49;100783.09;;;-0.30;66.76
65546;BME280;52177;55.968;37.498;2023-05-07T00:32:19;100784.00;;;-0.31;66.64
65546;BME280;52177;55.968;37.498;2023-05-07T00:32:49;100778.75;;;-0.31;66.64
65546;BME280;52177;55.968;37.498;2023-05-07T00:33:21;100785.78;;;-0.32;66.65
65546;BME280;52177;55.968;37.498;2023-05-07T00:33:52;100777.09;;;-0.32;66.84
65546;BME280;52177;55.968;37.498;2023-05-07T00:34:22;100773.63;;;-0.33;66.95
65546;BME280;52177;55.968;37.498;2023-05-07T00:34:52;100782.31;;;-0.32;66.69
65546;BME280;52177;55.968;37.498;2023-05-07T00:35:23;100776.31;;;-0.34;66.52
65546;BME280;52177;55.968;37.498;2023-05-07T00:35:53;100774.59;;;-0.35;66.58
65546;BME280;52177;55.968;37.498;2023-05-07T00:36:26;100774.69;;;-0.37;66.50
65546;BME280;52177;55.968;37.498;2023-05-07T00:36:57;100780.84;;;-0.38;66.60
65546;BME280;52177;55.968;37.498;2023-05-07T00:37:27;100779.09;;;-0.37;66.51
65546;BME280;52177;55.968;37.498;2023-05-07T00:37:57;100779.94;;;-0.37;66.60
65546;BME280;52177;55.968;37.498;2023-05-07T00:38:28;100780.84;;;-0.38;66.59
65546;BME280;52177;55.968;37.498;2023-05-07T00:38:59;100781.78;;;-0.39;66.65
65546;BME280;52177;55.968;37.498;2023-05-07T00:39:30;100779.16;;;-0.39;66.74
65546;BME280;52177;55.968;37.498;2023-05-07T00:40:00;100782.81;;;-0.41;66.48
65546;BME280;52177;55.968;37.498;2023-05-07T00:40:33;100778.47;;;-0.43;66.67
65546;BME280;52177;55.968;37.498;2023-05-07T00:41:04;100782.88;;;-0.43;66.69
65546;BME280;52177;55.968;37.498;2023-05-07T00:41:34;100777.56;;;-0.41;66.66
65546;BME280;52177;55.968;37.498;2023-05-07T00:42:04;100781.84;;;-0.40;66.71
65546;BME280;52177;55.968;37.498;2023-05-07T00:42:35;100781.97;;;-0.42;66.64
65546;BME280;52177;55.968;37.498;2023-05-07T00:43:06;100782.81;;;-0.41;66.48
65546;BME280;52177;55.968;37.498;2023-05-07T00:43:36;100781.97;;;-0.42;66.56
65546;BME280;52177;55.968;37.498;2023-05-07T00:44:07;100786.31;;;-0.43;66.59
65546;BME280;52177;55.968;37.498;2023-05-07T00:44:37;100784.66;;;-0.44;66.62
65546;BME280;52177;55.968;37.498;2023-05-07T00:45:07;100782.03;;;-0.44;66.61
65546;BME280;52177;55.968;37.498;2023-05-07T00:45:38;100789.03;;;-0.44;66.67
65546;BME280;52177;55.968;37.498;2023-05-07T00:46:09;100788.16;;;-0.45;66.67
65546;BME280;52177;55.968;37.498;2023-05-07T00:46:40;100780.31;;;-0.45;66.71
65546;BME280;52177;55.968;37.498;2023-05-07T00:47:11;100782.19;;;-0.47;66.83
65546;BME280;52177;55.968;37.498;2023-05-07T00:47:41;100782.25;;;-0.48;66.85
65546;BME280;52177;55.968;37.498;2023-05-07T00:48:12;100785.72;;;-0.48;66.77
65546;BME280;52177;55.968;37.498;2023-05-07T00:48:43;100781.31;;;-0.47;66.78
65546;BME280;52177;55.968;37.498;2023-05-07T00:49:13;100783.09;;;-0.48;66.87
65546;BME280;52177;55.968;37.498;2023-05-07T00:49:44;100778.72;;;-0.47;66.75
65546;BME280;52177;55.968;37.498;2023-05-07T00:50:15;100786.50;;;-0.46;66.94
65546;BME280;52177;55.968;37.498;2023-05-07T00:50:47;100781.25;;;-0.46;66.82
65546;BME280;52177;55.968;37.498;2023-05-07T00:51:18;100778.56;;;-0.44;66.72
65546;BME280;52177;55.968;37.498;2023-05-07T00:51:49;100781.19;;;-0.44;66.67
65546;BME280;52177;55.968;37.498;2023-05-07T00:52:21;100782.09;;;-0.45;66.64
65546;BME280;52177;55.968;37.498;2023-05-07T00:52:54;100781.25;;;-0.46;66.63
65546;BME280;52177;55.968;37.498;2023-05-07T00:53:24;100780.41;;;-0.46;66.76
65546;BME280;52177;55.968;37.498;2023-05-07T00:53:55;100785.56;;;-0.45;66.74
65546;BME280;52177;55.968;37.498;2023-05-07T00:54:25;100783.94;;;-0.47;66.78
65546;BME280;52177;55.968;37.498;2023-05-07T00:54:56;100782.09;;;-0.45;66.72
65546;BME280;52177;55.968;37.498;2023-05-07T00:55:26;100782.09;;;-0.45;66.62
65546;BME280;52177;55.968;37.498;2023-05-07T00:55:57;100785.56;;;-0.45;66.66
65546;BME280;52177;55.968;37.498;2023-05-07T00:56:27;100782.88;;;-0.43;66.76
65546;BME280;52177;55.968;37.498;2023-05-07T00:56:58;100782.88;;;-0.43;66.69
65546;BME280;52177;55.968;37.498;2023-05-07T00:57:28;100787.25;;;-0.44;66.55
65546;BME280;52177;55.968;37.498;2023-05-07T00:57:59;100788.16;;;-0.45;66.68
65546;BME280;52177;55.968;37.498;2023-05-07T00:58:29;100786.44;;;-0.44;66.72
65546;BME280;52177;55.968;37.498;2023-05-07T00:59:02;100783.88;;;-0.46;66.75
65546;BME280;52177;55.968;37.498;2023-05-07T00:59:33;100786.50;;;-0.46;66.84
65546;BME280;52177;55.968;37.498;2023-05-07T01:00:04;100785.72;;;-0.48;66.81
65546;BME280;52177;55.968;37.498;2023-05-07T01:00:35;100783.09;;;-0.48;66.82
65546;BME280;52177;55.968;37.498;2023-05-07T01:01:06;100789.28;;;-0.49;66.77
65546;BME280;52177;55.968;37.498;2023-05-07T01:01:36;100780.59;;;-0.49;66.99
65546;BME280;52177;55.968;37.498;2023-05-07T01:02:07;100791.97;;;-0.50;66.96
65546;BME280;52177;55.968;37.498;2023-05-07T01:02:41;100782.44;;;-0.51;66.95
65546;BME280;52177;55.968;37.498;2023-05-07T01:03:12;100789.41;;;-0.52;66.97
65546;BME280;52177;55.968;37.498;2023-05-07T01:03:42;100788.56;;;-0.52;67.04
65546;BME280;52177;55.968;37.498;2023-05-07T01:04:13;100795.59;;;-0.53;66.96
65546;BME280;52177;55.968;37.498;2023-05-07T01:04:43;100794.81;;;-0.55;66.91
65546;BME280;52177;55.968;37.498;2023-05-07T01:05:15;100786.13;;;-0.55;67.05
65546;BME280;52177;55.968;37.498;2023-05-07T01:05:47;100793.22;;;-0.57;67.06
65546;BME280;52177;55.968;37.498;2023-05-07T01:06:20;100792.38;;;-0.58;67.27
65546;BME280;52177;55.968;37.498;2023-05-07T01:06:54;100793.44;;;-0.62;67.25
65546;BME280;52177;55.968;37.498;2023-05-07T01:07:26;100795.22;;;-0.62;67.15
65546;BME280;52177;55.968;37.498;2023-05-07T01:07:57;100790.06;;;-0.64;67.23
65546;BME280;52177;55.968;37.498;2023-05-07T01:08:28;100791.00;;;-0.65;67.14
65546;BME280;52177;55.968;37.498;2023-05-07T01:09:00;100791.00;;;-0.65;67.39
65546;BME280;52177;55.968;37.498;2023-05-07T01:09:30;100792.66;;;-0.64;67.41
65546;BME280;52177;55.968;37.498;2023-05-07T01:10:03;100791.91;;;-0.66;67.56
65546;BME280;52177;55.968;37.498;2023-05-07T01:10:34;100788.38;;;-0.65;67.67
65546;BME280;52177;55.968;37.498;2023-05-07T01:11:04;100792.66;;;-0.64;67.38
65546;BME280;52177;55.968;37.498;2023-05-07T01:11:34;100783.13;;;-0.65;67.48
65546;BME280;52177;55.968;37.498;2023-05-07T01:12:06;100791.75;;;-0.63;67.52
65546;BME280;52177;55.968;37.498;2023-05-07T01:12:37;100795.22;;;-0.62;67.47
65546;BME280;52177;55.968;37.498;2023-05-07T01:13:12;100787.38;;;-0.62;67.50
65546;BME280;52177;55.968;37.498;2023-05-07T01:13:44;100789.16;;;-0.63;67.43
65546;BME280;52177;55.968;37.498;2023-05-07T01:14:15;100789.97;;;-0.62;67.41
65546;BME280;52177;55.968;37.498;2023-05-07T01:14:45;100796.91;;;-0.61;67.16
65546;BME280;52177;55.968;37.498;2023-05-07T01:15:16;100792.50;;;-0.61;67.36
65546;BME280;52177;55.968;37.498;2023-05-07T01:15:47;100793.38;;;-0.60;67.17
65546;BME280;52177;55.968;37.498;2023-05-07T01:16:17;100792.44;;;-0.59;67.25
65546;BME280;52177;55.968;37.498;2023-05-07T01:16:48;100795.00;;;-0.58;67.19
65546;BME280;52177;55.968;37.498;2023-05-07T01:17:21;100797.59;;;-0.58;67.18
65546;BME280;52177;55.968;37.498;2023-05-07T01:17:51;100794.06;;;-0.57;67.21
65546;BME280;52177;55.968;37.498;2023-05-07T01:18:22;100788.75;;;-0.55;67.19
65546;BME280;52177;55.968;37.498;2023-05-07T01:18:52;100794.06;;;-0.57;67.24
65546;BME280;52177;55.968;37.498;2023-05-07T01:19:22;100801.00;;;-0.56;67.21
65546;BME280;52177;55.968;37.498;2023-05-07T01:19:53;100801.84;;;-0.55;67.27
65546;BME280;52177;55.968;37.498;2023-05-07T01:20:23;100801.84;;;-0.55;66.98
65546;BME280;52177;55.968;37.498;2023-05-07T01:20:56;100795.75;;;-0.56;67.17
65546;BME280;52177;55.968;37.498;2023-05-07T01:21:33;100787.81;;;-0.54;67.04
65546;BME280;52177;55.968;37.498;2023-05-07T01:22:08;100792.22;;;-0.55;67.06
65546;BME280;52177;55.968;37.498;2023-05-07T01:22:39;100786.97;;;-0.55;66.85
65546;BME280;52177;55.968;37.498;2023-05-07T01:23:10;100798.38;;;-0.56;66.82
65546;BME280;52177;55.968;37.498;2023-05-07T01:23:41;100795.00;;;-0.58;66.80
65546;BME280;52177;55.968;37.498;2023-05-07T01:24:12;100796.78;;;-0.58;66.87
65546;BME280;52177;55.968;37.498;2023-05-07T01:24:42;100797.69;;;-0.59;66.94
65546;BME280;52177;55.968;37.498;2023-05-07T01:25:13;100798.63;;;-0.60;66.97
65546;BME280;52177;55.968;37.498;2023-05-07T01:25:51;100794.22;;;-0.60;67.11
65546;BME280;52177;55.968;37.498;2023-05-07T01:26:22;100801.13;;;-0.59;67.06
65546;BME280;52177;55.968;37.498;2023-05-07T01:26:53;100796.91;;;-0.61;67.25
65546;BME280;52177;55.968;37.498;2023-05-07T01:27:24;100799.53;;;-0.61;67.27
65546;BME280;52177;55.968;37.498;2023-05-07T01:27:54;100797.75;;;-0.61;67.31
65546;BME280;52177;55.968;37.498;2023-05-07T01:28:25;100798.69;;;-0.62;67.27
65546;BME280;52177;55.968;37.498;2023-05-07T01:28:55;100802.31;;;-0.65;67.21
65546;BME280;52177;55.968;37.498;2023-05-07T01:29:26;100800.53;;;-0.64;67.25
65546;BME280;52177;55.968;37.498;2023-05-07T01:29:56;100800.63;;;-0.66;67.22
65546;BME280;52177;55.968;37.498;2023-05-07T01:30:27;100804.16;;;-0.67;67.32
65546;BME280;52177;55.968;37.498;2023-05-07T01:31:01;100799.06;;;-0.70;67.33
65546;BME280;52177;55.968;37.498;2023-05-07T01:31:33;100802.69;;;-0.72;67.42
65546;BME280;52177;55.968;37.498;2023-05-07T01:32:05;100803.59;;;-0.73;67.37
65546;BME280;52177;55.968;37.498;2023-05-07T01:32:40;100805.38;;;-0.74;67.49
65546;BME280;52177;55.968;37.498;2023-05-07T01:33:15;100800.16;;;-0.74;67.59
65546;BME280;52177;55.968;37.498;2023-05-07T01:33:49;100799.38;;;-0.76;67.79
65546;BME280;52177;55.968;37.498;2023-05-07T01:34:22;100806.31;;;-0.75;67.77
65546;BME280;52177;55.968;37.498;2023-05-07T01:34:53;100799.31;;;-0.74;67.62
65546;BME280;52177;55.968;37.498;2023-05-07T01:35:29;100799.31;;;-0.74;67.80
65546;BME280;52177;55.968;37.498;2023-05-07T01:35:59;100805.44;;;-0.75;67.68
65546;BME280;52177;55.968;37.498;2023-05-07T01:36:32;100800.22;;;-0.75;67.75
65546;BME280;52177;55.968;37.498;2023-05-07T01:37:03;100804.59;;;-0.76;67.82
65546;BME280;52177;55.968;37.498;2023-05-07T01:37:33;100799.38;;;-0.76;67.71
65546;BME280;52177;55.968;37.498;2023-05-07T01:38:04;100805.44;;;-0.75;67.93
65546;BME280;52177;55.968;37.498;2023-05-07T01:38:37;100806.38;;;-0.76;67.94
65546;BME280;52177;55.968;37.498;2023-05-07T01:39:08;100805.56;;;-0.77;68.15
65546;BME280;52177;55.968;37.498;2023-05-07T01:39:39;100803.78;;;-0.76;68.12
65546;BME280;52177;55.968;37.498;2023-05-07T01:40:10;100805.44;;;-0.75;67.97
65546;BME280;52177;55.968;37.498;2023-05-07T01:40:41;100805.56;;;-0.77;67.93
65546;BME280;52177;55.968;37.498;2023-05-07T01:41:12;100803.84;;;-0.78;67.88
65546;BME280;52177;55.968;37.498;2023-05-07T01:41:43;100805.63;;;-0.78;67.89
65546;BME280;52177;55.968;37.498;2023-05-07T01:42:13;100806.63;;;-0.81;67.90
65546;BME280;52177;55.968;37.498;2023-05-07T01:42:43;100811.00;;;-0.81;67.94
65546;BME280;52177;55.968;37.498;2023-05-07T01:43:14;100804.06;;;-0.82;67.95
65546;BME280;52177;55.968;37.498;2023-05-07T01:43:45;100805.78;;;-0.81;68.13
65546;BME280;52177;55.968;37.498;2023-05-07T01:44:16;100808.31;;;-0.80;68.11
65546;BME280;52177;55.968;37.498;2023-05-07T01:44:48;100809.22;;;-0.81;68.12
65546;BME280;52177;55.968;37.498;2023-05-07T01:45:18;100810.16;;;-0.82;68.34
65546;BME280;52177;55.968;37.498;2023-05-07T01:45:49;100810.06;;;-0.80;68.33
65546;BME280;52177;55.968;37.498;2023-05-07T01:46:20;100812.69;;;-0.80;68.52
65546;BME280;52177;55.968;37.498;2023-05-07T01:46:51;100810.84;;;-0.78;68.41
65546;BME280;52177;55.968;37.498;2023-05-07T01:47:22;100808.31;;;-0.80;68.37
65546;BME280;52177;55.968;37.498;2023-05-07T01:47:54;100814.41;;;-0.79;68.19
65546;BME280;52177;55.968;37.498;2023-05-07T01:48:25;100811.84;;;-0.81;68.17
65546;BME280;52177;55.968;37.498;2023-05-07T01:48:56;100811.00;;;-0.81;68.05
65546;BME280;52177;55.968;37.498;2023-05-07T01:49:26;100806.69;;;-0.82;68.10
65546;BME280;52177;55.968;37.498;2023-05-07T01:49:57;100811.84;;;-0.81;68.13
65546;BME280;52177;55.968;37.498;2023-05-07T01:50:28;100813.63;;;-0.81;68.27
65546;BME280;52177;55.968;37.498;2023-05-07T01:51:00;100808.41;;;-0.81;68.40
65546;BME280;52177;55.968;37.498;2023-05-07T01:51:31;100819.72;;;-0.81;68.25
65546;BME280;52177;55.968;37.498;2023-05-07T01:52:03;100817.94;;;-0.80;68.44
65546;BME280;52177;55.968;37.498;2023-05-07T01:52:34;100813.53;;;-0.80;68.48
65546;BME280;52177;55.968;37.498;2023-05-07T01:53:04;100817.03;;;-0.79;68.55
65546;BME280;52177;55.968;37.498;2023-05-07T01:53:36;100814.31;;;-0.78;68.33
65546;BME280;52177;55.968;37.498;2023-05-07T01:54:06;100816.09;;;-0.78;68.44
65546;BME280;52177;55.968;37.498;2023-05-07T01:54:38;100816.94;;;-0.78;68.40
65546;BME280;52177;55.968;37.498;2023-05-07T01:55:09;100823.00;;;-0.77;68.35
65546;BME280;52177;55.968;37.498;2023-05-07T01:55:39;100816.88;;;-0.76;68.40
65546;BME280;52177;55.968;37.498;2023-05-07T01:56:10;100812.53;;;-0.77;68.30
65546;BME280;52177;55.968;37.498;2023-05-07T01:56:40;100817.88;;;-0.79;68.22
65546;BME280;52177;55.968;37.498;2023-05-07T01:57:11;100814.31;;;-0.78;68.32
65546;BME280;52177;55.968;37.498;2023-05-07T01:57:41;100820.47;;;-0.79;68.24
65546;BME280;52177;55.968;37.498;2023-05-07T01:58:11;100819.63;;;-0.79;68.23
65546;BME280;52177;55.968;37.498;2023-05-07T01:58:42;100818.03;;;-0.82;68.19
65546;BME280;52177;55.968;37.498;2023-05-07T01:59:12;100821.56;;;-0.83;68.24
65546;BME280;52177;55.968;37.498;2023-05-07T01:59:43;100822.38;;;-0.82;68.41
65546;BME280;52177;55.968;37.498;2023-05-07T02:00:14;100822.47;;;-0.84;68.45
65546;BME280;52177;55.968;37.498;2023-05-07T02:00:44;100824.16;;;-0.83;68.62
65546;BME280;52177;55.968;37.498;2023-05-07T02:01:15;100821.56;;;-0.83;68.71
65546;BME280;52177;55.968;37.498;2023-05-07T02:01:45;100822.38;;;-0.82;68.80
65546;BME280;52177;55.968;37.498;2023-05-07T02:02:15;100824.16;;;-0.83;68.70
65546;BME280;52177;55.968;37.498;2023-05-07T02:02:46;100831.19;;;-0.83;68.83
65546;BME280;52177;55.968;37.498;2023-05-07T02:03:16;100831.13;;;-0.82;68.81
65546;BME280;52177;55.968;37.498;2023-05-07T02:03:47;100831.13;;;-0.82;68.94
65546;BME280;52177;55.968;37.498;2023-05-07T02:04:17;100827.63;;;-0.82;68.77
65546;BME280;52177;55.968;37.498;2023-05-07T02:04:47;100828.50;;;-0.82;68.73
65546;BME280;52177;55.968;37.498;2023-05-07T02:05:18;100830.25;;;-0.82;68.85
65546;BME280;52177;55.968;37.498;2023-05-07T02:05:48;100831.97;;;-0.81;68.77
65546;BME280;52177;55.968;37.498;2023-05-07T02:06:19;100829.34;;;-0.81;68.72
65546;BME280;52177;55.968;37.498;2023-05-07T02:06:49;100831.13;;;-0.82;68.63
65546;BME280;52177;55.968;37.498;2023-05-07T02:07:20;100829.34;;;-0.81;68.68
65546;BME280;52177;55.968;37.498;2023-05-07T02:07:50;100830.25;;;-0.82;68.51
65546;BME280;52177;55.968;37.498;2023-05-07T02:08:21;100828.50;;;-0.82;68.56
65546;BME280;52177;55.968;37.498;2023-05-07T02:08:51;100824.09;;;-0.81;68.69
65546;BME280;52177;55.968;37.498;2023-05-07T02:09:21;100831.13;;;-0.82;68.79
65546;BME280;52177;55.968;37.498;2023-05-07T02:09:53;100834.56;;;-0.81;68.65
65546;BME280;52177;55.968;37.498;2023-05-07T02:10:25;100827.56;;;-0.81;68.65
65546;BME280;52177;55.968;37.498;2023-05-07T02:10:55;100829.34;;;-0.81;68.68
65546;BME280;52177;55.968;37.498;2023-05-07T02:11:25;100831.03;;;-0.80;68.70
65546;BME280;52177;55.968;37.498;2023-05-07T02:11:56;100831.84;;;-0.80;68.57
65546;BME280;52177;55.968;37.498;2023-05-07T02:12:27;100835.34;;;-0.79;68.57
65546;BME280;52177;55.968;37.498;2023-05-07T02:12:57;100827.50;;;-0.79;68.60
65546;BME280;52177;55.968;37.498;2023-05-07T02:13:32;100832.72;;;-0.79;68.58
65546;BME280;52177;55.968;37.498;2023-05-07T02:14:03;100832.72;;;-0.79;68.59
65546;BME280;52177;55.968;37.498;2023-05-07T02:14:33;100835.34;;;-0.79;68.64
65546;BME280;52177;55.968;37.498;2023-05-07T02:15:04;100827.50;;;-0.79;68.62
65546;BME280;52177;55.968;37.498;2023-05-07T02:15:34;100837.97;;;-0.79;68.49
65546;BME280;52177;55.968;37.498;2023-05-07T02:16:05;100834.41;;;-0.78;68.62
65546;BME280;52177;55.968;37.498;2023-05-07T02:16:35;100840.50;;;-0.78;68.61
65546;BME280;52177;55.968;37.498;2023-05-07T02:17:06;100838.72;;;-0.77;68.62
65546;BME280;52177;55.968;37.498;2023-05-07T02:17:39;100836.09;;;-0.77;68.56
65546;BME280;52177;55.968;37.498;2023-05-07T02:18:27;100837.88;;;-0.78;68.83
65546;BME280;52177;55.968;37.498;2023-05-07T02:18:57;100836.97;;;-0.77;68.68
65546;BME280;52177;55.968;37.498;2023-05-07T02:19:28;100843.81;;;-0.74;68.66
65546;BME280;52177;55.968;37.498;2023-05-07T02:19:58;100837.66;;;-0.73;68.58
65546;BME280;52177;55.968;37.498;2023-05-07T02:20:29;100838.41;;;-0.71;68.60
65546;BME280;52177;55.968;37.498;2023-05-07T02:21:00;100843.59;;;-0.70;68.65
65546;BME280;52177;55.968;37.498;2023-05-07T02:21:30;100836.50;;;-0.68;68.51
65546;BME280;52177;55.968;37.498;2023-05-07T02:22:00;100844.28;;;-0.66;68.48
65546;BME280;52177;55.968;37.498;2023-05-07T02:22:31;100845.03;;;-0.64;68.38
65546;BME280;52177;55.968;37.498;2023-05-07T02:23:01;100840.66;;;-0.64;68.44
65546;BME280;52177;55.968;37.498;2023-05-07T02:23:31;100844.88;;;-0.61;68.37
65546;BME280;52177;55.968;37.498;2023-05-07T02:24:02;100839.63;;;-0.61;68.24
65546;BME280;52177;55.968;37.498;2023-05-07T02:24:32;100845.75;;;-0.60;68.29
65546;BME280;52177;55.968;37.498;2023-05-07T02:25:03;100847.44;;;-0.59;68.20
65546;BME280;52177;55.968;37.498;2023-05-07T02:25:33;100846.53;;;-0.58;68.32
65546;BME280;52177;55.968;37.498;2023-05-07T02:26:04;100850.75;;;-0.56;68.31
65546;BME280;52177;55.968;37.498;2023-05-07T02:26:34;100845.53;;;-0.56;68.25
65546;BME280;52177;55.968;37.498;2023-05-07T02:27:05;100852.38;;;-0.53;68.23
65546;BME280;52177;55.968;37.498;2023-05-07T02:27:35;100850.59;;;-0.53;68.17
65546;BME280;52177;55.968;37.498;2023-05-07T02:28:05;100844.41;;;-0.52;68.19
65546;BME280;52177;55.968;37.498;2023-05-07T02:28:36;100856.44;;;-0.48;68.20
65546;BME280;52177;55.968;37.498;2023-05-07T02:29:06;100851.22;;;-0.48;68.03
65546;BME280;52177;55.968;37.498;2023-05-07T02:29:37;100851.22;;;-0.48;68.17
65546;BME280;52177;55.968;37.498;2023-05-07T02:30:07;100850.31;;;-0.47;68.19
65546;BME280;52177;55.968;37.498;2023-05-07T02:30:38;100851.97;;;-0.46;68.13
65546;BME280;52177;55.968;37.498;2023-05-07T02:31:08;100857.16;;;-0.44;68.05
65546;BME280;52177;55.968;37.498;2023-05-07T02:31:38;100856.16;;;-0.41;68.08
65546;BME280;52177;55.968;37.498;2023-05-07T02:32:09;100852.59;;;-0.40;67.96
65546;BME280;52177;55.968;37.498;2023-05-07T02:32:39;100856.91;;;-0.39;68.06
65546;BME280;52177;55.968;37.498;2023-05-07T02:33:09;100855.13;;;-0.39;68.16
65546;BME280;52177;55.968;37.498;2023-05-07T02:33:42;100856.81;;;-0.38;67.98
65546;BME280;52177;55.968;37.498;2023-05-07T02:34:12;100852.44;;;-0.37;67.87
65546;BME280;52177;55.968;37.498;2023-05-07T02:34:43;100859.44;;;-0.38;67.97
65546;BME280;52177;55.968;37.498;2023-05-07T02:35:14;100852.44;;;-0.37;67.93
65546;BME280;52177;55.968;37.498;2023-05-07T02:35:44;100859.44;;;-0.38;68.03
65546;BME280;52177;55.968;37.498;2023-05-07T02:36:14;100850.75;;;-0.38;68.11
65546;BME280;52177;55.968;37.498;2023-05-07T02:36:45;100862.94;;;-0.37;67.99
65546;BME280;52177;55.968;37.498;2023-05-07T02:37:15;100861.16;;;-0.37;67.94
65546;BME280;52177;55.968;37.498;2023-05-07T02:37:46;100858.44;;;-0.35;67.85
65546;BME280;52177;55.968;37.498;2023-05-07T02:38:16;100864.44;;;-0.33;67.76
65546;BME280;52177;55.968;37.498;2023-05-07T02:38:47;100856.69;;;-0.35;67.81
65546;BME280;52177;55.968;37.498;2023-05-07T02:39:17;100851.44;;;-0.35;67.82
65546;BME280;52177;55.968;37.498;2023-05-07T02:39:47;100849.66;;;-0.34;67.78